Time;durP1;ratioP1;P1;durP2;ratioP2;P2;SDS_P1;SDS_P2;PMS_P1;PMS_P2;Temp;Humidity;BMP_temperature;BMP_pressure;BME280_temperature;BME280_humidity;BME280_pressure;Samples;Min_cycle;Max_cycle;Signal;HPM_P1;HPM_P2
2023/04/03 00:00:25;;;;;;;2.17;1.88;;;;;;;;;;4970424;28;99875;-74
2023/04/03 00:02:51;;;;;;;2.78;1.88;;;;;;;;;;4970456;28;98436;-74
2023/04/03 00:05:18;;;;;;;1.77;1.67;;;;;;;;;;4970372;28;99367;-74
2023/04/03 00:07:45;;;;;;;2.25;1.42;;;;;;;;;;4973984;28;99282;-74
2023/04/03 00:10:12;;;;;;;4.63;2.13;;;;;;;;;;4972459;28;99816;-73
2023/04/03 00:12:38;;;;;;;7.88;2.00;;;;;;;;;;4970659;28;99851;-74
2023/04/03 00:15:05;;;;;;;3.03;1.52;;;;;;;;;;4973946;28;98257;-74
2023/04/03 00:17:31;;;;;;;2.03;1.50;;;;;;;;;;4974922;28;98591;-74
2023/04/03 00:19:57;;;;;;;5.38;1.95;;;;;;;;;;4970233;28;98956;-74
2023/04/03 00:22:26;;;;;;;3.75;1.60;;;;;;;;;;4970770;28;98212;-74
2023/04/03 00:24:52;;;;;;;5.10;1.20;;;;;;;;;;4969693;28;98517;-74
2023/04/03 00:27:19;;;;;;;1.80;1.70;;;;;;;;;;4970247;28;99130;-74
2023/04/03 00:29:45;;;;;;;2.17;1.50;;;;;;;;;;4973596;28;98210;-74
2023/04/03 00:32:12;;;;;;;1.50;1.40;;;;;;;;;;4969900;28;98923;-74
2023/04/03 00:34:39;;;;;;;2.05;1.77;;;;;;;;;;4969797;28;98231;-74
2023/04/03 00:37:05;;;;;;;3.00;1.67;;;;;;;;;;4970128;28;98330;-74
2023/04/03 00:39:32;;;;;;;2.28;2.10;;;;;;;;;;4969384;28;99487;-74
2023/04/03 00:41:58;;;;;;;3.58;1.23;;;;;;;;;;4969982;28;98200;-74
2023/04/03 00:44:27;;;;;;;2.08;1.63;;;;;;;;;;4970373;28;98391;-74
2023/04/03 00:46:54;;;;;;;4.25;1.90;;;;;;;;;;4968948;28;99159;-74
2023/04/03 00:49:20;;;;;;;1.58;1.48;;;;;;;;;;4970626;28;98255;-74
2023/04/03 00:51:47;;;;;;;2.28;2.08;;;;;;;;;;4971239;28;100698;-74
2023/04/03 00:54:13;;;;;;;2.75;1.77;;;;;;;;;;4969287;28;98214;-74
2023/04/03 00:56:40;;;;;;;3.67;1.80;;;;;;;;;;4970062;28;98502;-74
2023/04/03 00:59:18;;;;;;;1.77;1.67;;;;;;;;;;4968209;28;100120;-74
2023/04/03 01:01:44;;;;;;;2.13;2.00;;;;;;;;;;4968787;28;98143;-74
2023/04/03 01:04:28;;;;;;;2.13;1.98;;;;;;;;;;4969694;28;98262;-73
2023/04/03 01:06:55;;;;;;;4.15;2.00;;;;;;;;;;4967915;28;101720;-73
2023/04/03 01:09:22;;;;;;;2.65;1.90;;;;;;;;;;4968614;28;98248;-73
2023/04/03 01:11:48;;;;;;;4.20;1.58;;;;;;;;;;4969483;28;99903;-73
2023/04/03 01:14:15;;;;;;;2.40;1.98;;;;;;;;;;4972339;28;98788;-74
2023/04/03 01:16:42;;;;;;;2.17;1.98;;;;;;;;;;4967947;28;100757;-74
2023/04/03 01:19:11;;;;;;;3.03;1.67;;;;;;;;;;4968216;28;100154;-74
2023/04/03 01:22:03;;;;;;;1.80;1.70;;;;;;;;;;4969136;28;98936;-74
2023/04/03 01:24:34;;;;;;;8.75;2.10;;;;;;;;;;4970328;28;98538;-74
2023/04/03 01:27:03;;;;;;;5.90;1.95;;;;;;;;;;4967464;28;100895;-74
2023/04/03 01:29:30;;;;;;;4.30;1.58;;;;;;;;;;4951766;28;98443;-74
2023/04/03 01:31:57;;;;;;;2.45;1.70;;;;;;;;;;4949653;28;99935;-74
2023/04/03 01:34:24;;;;;;;1.85;1.73;;;;;;;;;;4971736;28;101745;-74
2023/04/03 01:36:51;;;;;;;5.13;2.15;;;;;;;;;;4967237;28;101136;-74
2023/04/03 01:39:19;;;;;;;1.98;1.77;;;;;;;;;;4966791;28;99935;-74
2023/04/03 01:41:46;;;;;;;3.00;2.42;;;;;;;;;;4953831;28;99024;-74
2023/04/03 01:44:19;;;;;;;5.35;2.20;;;;;;;;;;4963861;28;100358;-74
2023/04/03 01:46:46;;;;;;;3.90;1.70;;;;;;;;;;4967096;28;101579;-74
2023/04/03 01:49:13;;;;;;;2.63;1.95;;;;;;;;;;4965900;28;98818;-73
2023/04/03 01:51:39;;;;;;;6.15;2.05;;;;;;;;;;4966426;28;102175;-74
2023/04/03 01:54:05;;;;;;;1.90;1.50;;;;;;;;;;4967153;28;101087;-74
2023/04/03 01:56:32;;;;;;;2.65;2.25;;;;;;;;;;4972382;28;99156;-74
2023/04/03 01:58:59;;;;;;;4.03;2.45;;;;;;;;;;4966694;28;99682;-74
2023/04/03 02:01:25;;;;;;;3.60;2.42;;;;;;;;;;4967709;28;99685;-74
2023/04/03 02:03:52;;;;;;;2.25;2.05;;;;;;;;;;4966641;28;100163;-73
2023/04/03 02:06:19;;;;;;;2.38;2.10;;;;;;;;;;4967363;28;99878;-74
2023/04/03 02:08:45;;;;;;;4.78;2.00;;;;;;;;;;4968658;28;98203;-74
2023/04/03 02:11:13;;;;;;;4.78;2.05;;;;;;;;;;4966711;28;100866;-74
2023/04/03 02:13:40;;;;;;;3.45;2.13;;;;;;;;;;4968247;28;100032;-74
2023/04/03 02:16:10;;;;;;;1.60;1.60;;;;;;;;;;4986769;28;98351;-74
2023/04/03 02:18:37;;;;;;;2.55;2.30;;;;;;;;;;4992715;28;99016;-74
2023/04/03 02:21:04;;;;;;;3.28;2.10;;;;;;;;;;4989104;28;98292;-74
2023/04/03 02:23:30;;;;;;;1.90;1.80;;;;;;;;;;4987330;28;100935;-74
2023/04/03 02:26:05;;;;;;;2.72;2.10;;;;;;;;;;4977578;28;99936;-74
2023/04/03 02:28:31;;;;;;;2.42;2.05;;;;;;;;;;4967246;28;98273;-74
2023/04/03 02:30:58;;;;;;;4.88;2.08;;;;;;;;;;4969393;28;98623;-74
2023/04/03 02:33:24;;;;;;;2.33;2.13;;;;;;;;;;4966243;28;99999;-73
2023/04/03 02:35:58;;;;;;;7.07;2.03;;;;;;;;;;4968103;28;98190;-74
2023/04/03 02:38:25;;;;;;;3.53;2.45;;;;;;;;;;4967091;28;98225;-74
2023/04/03 02:40:52;;;;;;;3.53;2.30;;;;;;;;;;4969771;28;99178;-74
2023/04/03 02:43:19;;;;;;;4.72;2.08;;;;;;;;;;4968485;28;100200;-74
2023/04/03 02:45:45;;;;;;;4.82;2.47;;;;;;;;;;4967095;28;98678;-74
2023/04/03 02:48:12;;;;;;;2.45;2.25;;;;;;;;;;4968959;28;98309;-74
2023/04/03 02:50:38;;;;;;;2.55;2.20;;;;;;;;;;4968299;28;98313;-74
2023/04/03 02:53:05;;;;;;;3.20;2.25;;;;;;;;;;4967202;28;98911;-74
2023/04/03 02:55:31;;;;;;;7.60;2.17;;;;;;;;;;4966945;28;98225;-74
2023/04/03 02:57:58;;;;;;;2.80;2.30;;;;;;;;;;4966249;28;100598;-74
2023/04/03 03:00:24;;;;;;;3.53;2.08;;;;;;;;;;4965058;28;101309;-74
2023/04/03 03:02:51;;;;;;;3.83;2.47;;;;;;;;;;4969099;28;98313;-74
2023/04/03 03:05:17;;;;;;;2.58;2.05;;;;;;;;;;4966624;28;101003;-74
2023/04/03 03:07:44;;;;;;;4.85;2.55;;;;;;;;;;4965789;28;98302;-74
2023/04/03 03:10:11;;;;;;;6.18;2.38;;;;;;;;;;4966844;28;99434;-74
2023/04/03 03:12:37;;;;;;;7.43;2.67;;;;;;;;;;4967805;28;98941;-74
2023/04/03 03:15:04;;;;;;;4.65;2.40;;;;;;;;;;4967102;28;98254;-74
2023/04/03 03:17:30;;;;;;;5.32;2.53;;;;;;;;;;4968176;28;98741;-73
2023/04/03 03:19:57;;;;;;;6.57;2.10;;;;;;;;;;4966692;28;99383;-74
2023/04/03 03:22:23;;;;;;;4.10;2.53;;;;;;;;;;4966326;28;98606;-73
2023/04/03 03:24:50;;;;;;;5.28;2.67;;;;;;;;;;4969504;28;99522;-74
2023/04/03 03:27:16;;;;;;;11.68;2.67;;;;;;;;;;4966854;28;98219;-74
2023/04/03 03:29:43;;;;;;;2.30;2.08;;;;;;;;;;4965750;28;99295;-74
2023/04/03 03:32:10;;;;;;;8.88;2.42;;;;;;;;;;4966386;28;99822;-74
2023/04/03 03:34:36;;;;;;;7.97;3.00;;;;;;;;;;4965695;28;98292;-74
2023/04/03 03:37:04;;;;;;;4.30;2.22;;;;;;;;;;4982278;28;100576;-74
2023/04/03 03:39:30;;;;;;;4.45;2.80;;;;;;;;;;4975750;28;98821;-74
2023/04/03 03:41:57;;;;;;;7.25;2.88;;;;;;;;;;4965991;28;98421;-73
2023/04/03 03:44:23;;;;;;;4.47;2.53;;;;;;;;;;4964699;28;100870;-74
2023/04/03 03:46:51;;;;;;;8.05;2.72;;;;;;;;;;4962839;28;98380;-74
2023/04/03 03:49:18;;;;;;;4.93;2.83;;;;;;;;;;4962516;28;99455;-73
2023/04/03 03:51:45;;;;;;;5.55;2.10;;;;;;;;;;4961848;28;100773;-74
2023/04/03 03:54:11;;;;;;;2.22;2.10;;;;;;;;;;4963749;28;98171;-74
2023/04/03 03:56:38;;;;;;;6.40;2.55;;;;;;;;;;4974885;28;101243;-74
2023/04/03 03:59:04;;;;;;;11.10;2.90;;;;;;;;;;4984903;28;98824;-74
2023/04/03 04:01:31;;;;;;;3.50;2.75;;;;;;;;;;4987367;28;98108;-73
2023/04/03 04:03:57;;;;;;;8.15;3.35;;;;;;;;;;4986670;28;98415;-74
2023/04/03 04:06:29;;;;;;;3.75;2.50;;;;;;;;;;4988871;28;101787;-73
2023/04/03 04:08:59;;;;;;;6.30;3.00;;;;;;;;;;4987997;28;101020;-74
2023/04/03 04:11:27;;;;;;;5.97;3.10;;;;;;;;;;4988117;28;101163;-74
2023/04/03 04:13:54;;;;;;;3.80;2.88;;;;;;;;;;4987848;28;98298;-74
2023/04/03 04:16:24;;;;;;;4.72;2.58;;;;;;;;;;4988292;28;100731;-74
2023/04/03 04:18:51;;;;;;;4.97;2.70;;;;;;;;;;4975719;28;101409;-74
2023/04/03 04:21:19;;;;;;;4.72;2.55;;;;;;;;;;4969147;28;98186;-74
2023/04/03 04:23:46;;;;;;;10.77;2.45;;;;;;;;;;4968073;28;98550;-73
2023/04/03 04:26:14;;;;;;;11.65;2.70;;;;;;;;;;4968997;28;101669;-73
2023/04/03 04:28:40;;;;;;;4.03;2.58;;;;;;;;;;4972276;28;98287;-74
2023/04/03 04:31:07;;;;;;;8.95;2.95;;;;;;;;;;4968570;28;101525;-73
2023/04/03 04:33:34;;;;;;;5.88;2.67;;;;;;;;;;4969155;28;98286;-74
2023/04/03 04:36:03;;;;;;;4.28;2.70;;;;;;;;;;4968654;28;101411;-74
2023/04/03 04:38:30;;;;;;;4.32;2.85;;;;;;;;;;4968134;28;101497;-74
2023/04/03 04:40:56;;;;;;;5.45;3.15;;;;;;;;;;4967699;28;98341;-74
2023/04/03 04:43:23;;;;;;;3.85;3.05;;;;;;;;;;4985248;28;98446;-73
2023/04/03 04:46:02;;;;;;;7.70;3.13;;;;;;;;;;4984149;28;101691;-73
2023/04/03 04:48:31;;;;;;;5.32;2.83;;;;;;;;;;4970307;28;98161;-73
2023/04/03 04:50:58;;;;;;;5.05;2.47;;;;;;;;;;4971331;28;100726;-74
2023/04/03 04:53:25;;;;;;;9.25;2.83;;;;;;;;;;4967201;28;98479;-73
2023/04/03 04:55:52;;;;;;;4.22;2.25;;;;;;;;;;4968427;28;101562;-73
2023/04/03 04:58:19;;;;;;;8.05;2.97;;;;;;;;;;4968732;28;98961;-73
2023/04/03 05:00:46;;;;;;;6.85;2.75;;;;;;;;;;4967638;28;98380;-74
2023/04/03 05:03:14;;;;;;;4.97;2.72;;;;;;;;;;4968915;28;98188;-73
2023/04/03 05:05:40;;;;;;;4.32;3.08;;;;;;;;;;4985416;28;100549;-73
2023/04/03 05:08:08;;;;;;;5.18;2.70;;;;;;;;;;4983912;28;99185;-73
2023/04/03 05:10:37;;;;;;;9.30;3.03;;;;;;;;;;4968241;28;98745;-74
2023/04/03 05:13:04;;;;;;;6.68;3.42;;;;;;;;;;4970054;28;101114;-74
2023/04/03 05:15:30;;;;;;;6.57;3.13;;;;;;;;;;4968532;28;101134;-74
2023/04/03 05:17:57;;;;;;;3.65;3.35;;;;;;;;;;4967747;28;100925;-73
2023/04/03 05:20:25;;;;;;;5.13;2.85;;;;;;;;;;4966700;28;98266;-74
2023/04/03 05:22:51;;;;;;;7.63;3.30;;;;;;;;;;5004038;28;101001;-74
2023/04/03 05:25:18;;;;;;;6.72;3.25;;;;;;;;;;4988123;28;101552;-75
2023/04/03 05:27:44;;;;;;;5.60;3.13;;;;;;;;;;4988331;28;98263;-75
2023/04/03 05:30:11;;;;;;;4.75;3.17;;;;;;;;;;4987308;28;98654;-75
2023/04/03 05:32:40;;;;;;;6.68;2.97;;;;;;;;;;4987747;28;101231;-75
2023/04/03 05:35:20;;;;;;;5.60;1.90;;;;;;;;;;4991918;28;98246;-74
2023/04/03 05:37:50;;;;;;;8.98;2.63;;;;;;;;;;4984884;28;102145;-75
2023/04/03 05:40:18;;;;;;;11.23;3.42;;;;;;;;;;4968216;28;98891;-75
2023/04/03 05:42:48;;;;;;;5.05;3.22;;;;;;;;;;4961707;28;100819;-74
2023/04/03 05:45:16;;;;;;;7.65;2.65;;;;;;;;;;4948842;28;99061;-74
2023/04/03 05:47:43;;;;;;;4.25;2.83;;;;;;;;;;4948792;28;98965;-75
2023/04/03 05:50:10;;;;;;;6.07;3.22;;;;;;;;;;4947792;28;100457;-74
2023/04/03 05:52:40;;;;;;;4.38;2.67;;;;;;;;;;4948332;28;101277;-74
2023/04/03 05:55:06;;;;;;;6.40;2.45;;;;;;;;;;4972413;28;98409;-74
2023/04/03 05:57:34;;;;;;;5.50;2.40;;;;;;;;;;4967623;28;100904;-74
2023/04/03 06:00:03;;;;;;;2.47;1.75;;;;;;;;;;4967475;28;98330;-74
2023/04/03 06:02:39;;;;;;;5.63;2.95;;;;;;;;;;4965910;28;99360;-74
2023/04/03 06:05:11;;;;;;;5.43;2.63;;;;;;;;;;4967714;28;99917;-74
2023/04/03 06:07:37;;;;;;;6.07;3.00;;;;;;;;;;4968069;28;98435;-75
2023/04/03 06:10:05;;;;;;;14.15;2.97;;;;;;;;;;4971742;28;101481;-73
2023/04/03 06:12:31;;;;;;;11.63;3.35;;;;;;;;;;4984111;28;101654;-74
2023/04/03 06:14:58;;;;;;;1.90;1.80;;;;;;;;;;4992489;28;98415;-74
2023/04/03 06:17:26;;;;;;;4.25;2.55;;;;;;;;;;4993455;28;98511;-74
2023/04/03 06:19:53;;;;;;;2.55;2.40;;;;;;;;;;4989266;28;98228;-74
2023/04/03 06:22:19;;;;;;;5.57;2.95;;;;;;;;;;4989348;28;98409;-74
2023/04/03 06:24:46;;;;;;;5.93;2.35;;;;;;;;;;4988733;28;98719;-74
2023/04/03 06:27:12;;;;;;;2.35;1.98;;;;;;;;;;4988369;28;98806;-74
2023/04/03 06:29:39;;;;;;;3.88;3.00;;;;;;;;;;4988044;28;98496;-74
2023/04/03 06:32:06;;;;;;;3.83;2.28;;;;;;;;;;4986798;28;99949;-74
2023/04/03 06:34:33;;;;;;;6.28;2.42;;;;;;;;;;4988494;28;98261;-74
2023/04/03 06:36:59;;;;;;;6.75;2.67;;;;;;;;;;4988458;28;98922;-75
2023/04/03 06:39:27;;;;;;;2.97;2.70;;;;;;;;;;4973991;28;98982;-74
2023/04/03 06:41:53;;;;;;;4.28;2.67;;;;;;;;;;4968071;28;98521;-76
2023/04/03 06:44:33;;;;;;;5.13;2.30;;;;;;;;;;4965968;28;99810;-74
2023/04/03 06:47:00;;;;;;;6.87;3.37;;;;;;;;;;4980542;28;98068;-74
2023/04/03 06:49:27;;;;;;;2.75;2.22;;;;;;;;;;4988443;28;99063;-74
2023/04/03 06:51:54;;;;;;;3.97;2.10;;;;;;;;;;4987446;28;98955;-74
2023/04/03 06:54:20;;;;;;;5.78;2.90;;;;;;;;;;4969192;28;99386;-74
2023/04/03 06:56:47;;;;;;;2.75;2.55;;;;;;;;;;4968297;28;99654;-74
2023/04/03 06:59:14;;;;;;;3.72;2.28;;;;;;;;;;4967215;28;100028;-74
2023/04/03 07:01:41;;;;;;;2.55;2.33;;;;;;;;;;5003206;28;98114;-74
2023/04/03 07:04:08;;;;;;;4.30;2.35;;;;;;;;;;4964843;28;99652;-74
2023/04/03 07:06:35;;;;;;;7.15;2.30;;;;;;;;;;4957629;28;98755;-74
2023/04/03 07:09:02;;;;;;;5.85;2.75;;;;;;;;;;4967246;28;99719;-76
2023/04/03 07:11:29;;;;;;;5.07;2.80;;;;;;;;;;4968586;28;100053;-75
2023/04/03 07:13:56;;;;;;;7.47;2.25;;;;;;;;;;4957846;28;98240;-75
2023/04/03 07:16:22;;;;;;;7.72;3.75;;;;;;;;;;4948546;28;99325;-75
2023/04/03 07:18:49;;;;;;;9.13;2.50;;;;;;;;;;4948023;28;100550;-75
2023/04/03 07:21:15;;;;;;;4.70;2.88;;;;;;;;;;4957908;28;99987;-74
2023/04/03 07:23:42;;;;;;;6.20;2.53;;;;;;;;;;4958094;28;98815;-74
2023/04/03 07:26:09;;;;;;;5.63;2.78;;;;;;;;;;4948158;28;98842;-74
2023/04/03 07:28:36;;;;;;;7.63;2.47;;;;;;;;;;4959448;28;99893;-74
2023/04/03 07:31:05;;;;;;;4.32;2.60;;;;;;;;;;4966201;28;100604;-74
2023/04/03 07:33:31;;;;;;;4.72;2.58;;;;;;;;;;4957458;28;98252;-75
2023/04/03 07:35:58;;;;;;;4.85;2.30;;;;;;;;;;4974477;28;99442;-75
2023/04/03 07:38:25;;;;;;;3.35;2.40;;;;;;;;;;4953145;28;100345;-74
2023/04/03 07:40:52;;;;;;;3.53;2.17;;;;;;;;;;4950301;28;98411;-75
2023/04/03 07:43:20;;;;;;;6.40;1.77;;;;;;;;;;4953594;28;99515;-75
2023/04/03 07:45:49;;;;;;;1.77;1.67;;;;;;;;;;4956007;28;99090;-75
2023/04/03 07:48:17;;;;;;;3.70;1.98;;;;;;;;;;4960235;28;98449;-74
2023/04/03 07:50:44;;;;;;;3.58;2.10;;;;;;;;;;4958861;28;99082;-74
2023/04/03 07:53:10;;;;;;;7.07;1.92;;;;;;;;;;4951694;28;98225;-75
2023/04/03 07:55:42;;;;;;;2.83;1.67;;;;;;;;;;4961361;28;100325;-75
2023/04/03 07:58:10;;;;;;;2.37;1.73;;;;;;;;;;4970231;28;99937;-75
2023/04/03 08:00:37;;;;;;;3.75;1.90;;;;;;;;;;4971665;28;98541;-75
2023/04/03 08:03:04;;;;;;;4.00;2.05;;;;;;;;;;4965178;28;99833;-74
2023/04/03 08:05:31;;;;;;;6.40;1.70;;;;;;;;;;4956002;28;99305;-74
2023/04/03 08:07:58;;;;;;;2.97;2.47;;;;;;;;;;4950995;28;98867;-74
2023/04/03 08:10:24;;;;;;;2.58;2.00;;;;;;;;;;4950357;28;99929;-74
2023/04/03 08:12:51;;;;;;;2.17;2.05;;;;;;;;;;4962769;28;98782;-74
2023/04/03 08:15:17;;;;;;;1.77;1.67;;;;;;;;;;4961620;28;99474;-75
2023/04/03 08:17:44;;;;;;;2.50;1.50;;;;;;;;;;4956965;28;99980;-75
2023/04/03 08:20:11;;;;;;;4.18;2.00;;;;;;;;;;4951042;28;98256;-75
2023/04/03 08:22:37;;;;;;;6.13;1.98;;;;;;;;;;4959573;28;100725;-75
2023/04/03 08:25:04;;;;;;;5.47;2.20;;;;;;;;;;4966592;28;99092;-74
2023/04/03 08:27:30;;;;;;;4.75;1.73;;;;;;;;;;4952779;28;98308;-75
2023/04/03 08:29:57;;;;;;;1.83;1.60;;;;;;;;;;4950300;28;99877;-75
2023/04/03 08:32:24;;;;;;;3.03;1.65;;;;;;;;;;4958131;28;98303;-75
2023/04/03 08:34:50;;;;;;;2.03;1.80;;;;;;;;;;4953178;28;98298;-75
2023/04/03 08:37:17;;;;;;;6.47;2.80;;;;;;;;;;4950663;28;99123;-75
2023/04/03 08:39:43;;;;;;;1.83;1.45;;;;;;;;;;4950387;28;99378;-76
2023/04/03 08:42:15;;;;;;;2.72;1.60;;;;;;;;;;4951262;28;98908;-75
2023/04/03 08:44:54;;;;;;;1.83;1.73;;;;;;;;;;4961430;28;100048;-75
2023/04/03 08:47:39;;;;;;;2.25;1.48;;;;;;;;;;4968614;28;98235;-75
2023/04/03 08:50:10;;;;;;;3.50;1.50;;;;;;;;;;4959791;28;101292;-75
2023/04/03 08:52:39;;;;;;;0.90;0.90;;;;;;;;;;4969035;28;98202;-75
2023/04/03 08:55:26;;;;;;;2.60;1.67;;;;;;;;;;4968954;28;99402;-75
2023/04/03 08:57:59;;;;;;;1.95;1.50;;;;;;;;;;4968608;28;99018;-75
2023/04/03 09:00:26;;;;;;;1.92;1.42;;;;;;;;;;4963607;28;98216;-75
2023/04/03 09:02:54;;;;;;;3.85;1.25;;;;;;;;;;4960746;28;99645;-75
2023/04/03 09:05:29;;;;;;;1.55;1.20;;;;;;;;;;4967719;28;99975;-76
2023/04/03 09:08:19;;;;;;;2.17;1.50;;;;;;;;;;4957291;28;98243;-74
2023/04/03 09:10:45;;;;;;;1.02;0.93;;;;;;;;;;4951034;28;99639;-73
2023/04/03 09:13:21;;;;;;;2.40;1.30;;;;;;;;;;4953285;28;99871;-75
2023/04/03 09:15:47;;;;;;;1.00;0.90;;;;;;;;;;4969660;28;98964;-75
2023/04/03 09:18:20;;;;;;;1.45;1.02;;;;;;;;;;4967577;28;99167;-74
2023/04/03 09:20:57;;;;;;;1.02;0.90;;;;;;;;;;4950641;28;98623;-74
2023/04/03 09:23:29;;;;;;;2.15;0.98;;;;;;;;;;4966033;28;99517;-74
2023/04/03 09:26:04;;;;;;;1.23;1.02;;;;;;;;;;4950018;28;100111;-74
2023/04/03 09:28:37;;;;;;;1.63;1.17;;;;;;;;;;4950066;28;98297;-74
2023/04/03 09:31:20;;;;;;;0.95;0.70;;;;;;;;;;4950342;28;99415;-75
2023/04/03 09:33:48;;;;;;;1.10;1.00;;;;;;;;;;4948979;28;99879;-75
2023/04/03 09:36:35;;;;;;;1.77;0.90;;;;;;;;;;4956345;28;98290;-75
2023/04/03 09:39:05;;;;;;;0.80;0.68;;;;;;;;;;4968020;28;99398;-74
2023/04/03 09:41:33;;;;;;;1.02;0.98;;;;;;;;;;4955349;28;98142;-75
2023/04/03 09:43:59;;;;;;;1.25;1.10;;;;;;;;;;4955941;28;98733;-75
2023/04/03 09:46:33;;;;;;;0.77;0.77;;;;;;;;;;4966741;28;100157;-74
2023/04/03 09:49:03;;;;;;;0.90;0.90;;;;;;;;;;4953177;28;98405;-74
2023/04/03 09:51:38;;;;;;;0.70;0.70;;;;;;;;;;4950392;28;99494;-74
2023/04/03 09:54:25;;;;;;;0.77;0.77;;;;;;;;;;4963048;28;100127;-74
2023/04/03 09:56:53;;;;;;;1.27;0.75;;;;;;;;;;4955083;28;98384;-75
2023/04/03 09:59:19;;;;;;;3.30;0.82;;;;;;;;;;4951111;28;99072;-77
2023/04/03 10:02:20;;;;;;;1.20;1.20;;;;;;;;;;4961337;28;98299;-74
2023/04/03 10:04:47;;;;;;;0.80;0.80;;;;;;;;;;4956891;28;99561;-73
2023/04/03 10:07:35;;;;;;;0.85;0.82;;;;;;;;;;4970136;28;98889;-74
2023/04/03 10:10:23;;;;;;;0.80;0.80;;;;;;;;;;4961813;28;98388;-74
2023/04/03 10:13:03;;;;;;;0.70;0.70;;;;;;;;;;4954970;28;100927;-74
2023/04/03 10:15:31;;;;;;;2.15;0.85;;;;;;;;;;4948345;28;98353;-74
2023/04/03 10:18:00;;;;;;;0.80;0.73;;;;;;;;;;4949429;28;98121;-74
2023/04/03 10:20:42;;;;;;;1.90;0.70;;;;;;;;;;4951605;28;99461;-74
2023/04/03 10:23:16;;;;;;;0.90;0.90;;;;;;;;;;4961535;28;98229;-73
2023/04/03 10:25:42;;;;;;;1.00;0.90;;;;;;;;;;4959453;28;99658;-74
2023/04/03 10:28:12;;;;;;;2.67;1.08;;;;;;;;;;4965539;28;101089;-74
2023/04/03 10:30:48;;;;;;;0.70;0.70;;;;;;;;;;4953464;28;98373;-74
2023/04/03 10:33:37;;;;;;;0.75;0.70;;;;;;;;;;4949952;28;98552;-75
2023/04/03 10:36:27;;;;;;;0.90;0.90;;;;;;;;;;4948428;28;99109;-74
2023/04/03 10:38:54;;;;;;;0.90;0.90;;;;;;;;;;4948988;28;98170;-74
2023/04/03 10:41:20;;;;;;;1.75;0.90;;;;;;;;;;4952285;28;98588;-74
2023/04/03 10:43:58;;;;;;;0.80;0.80;;;;;;;;;;4950482;28;99870;-74
2023/04/03 10:46:32;;;;;;;1.15;1.05;;;;;;;;;;4948387;28;99396;-75
2023/04/03 10:48:58;;;;;;;1.38;0.90;;;;;;;;;;4948466;28;101067;-74
2023/04/03 10:51:33;;;;;;;0.77;0.77;;;;;;;;;;4965767;28;98317;-74
2023/04/03 10:54:18;;;;;;;5.72;0.88;;;;;;;;;;4968058;28;99510;-75
2023/04/03 10:56:50;;;;;;;1.02;0.90;;;;;;;;;;4963123;28;99214;-75
2023/04/03 10:59:32;;;;;;;0.80;0.80;;;;;;;;;;4949050;28;99903;-75
2023/04/03 11:02:05;;;;;;;1.23;0.95;;;;;;;;;;4968171;28;98756;-74
2023/04/03 11:04:35;;;;;;;0.80;0.80;;;;;;;;;;4966841;28;100048;-74
2023/04/03 11:07:07;;;;;;;1.52;0.75;;;;;;;;;;4971214;28;98197;-75
2023/04/03 11:09:37;;;;;;;1.25;1.15;;;;;;;;;;4967963;28;100588;-75
2023/04/03 11:12:06;;;;;;;0.80;0.80;;;;;;;;;;4966978;28;98162;-74
2023/04/03 11:14:34;;;;;;;1.90;1.00;;;;;;;;;;4970111;28;99787;-74
2023/04/03 11:17:08;;;;;;;1.42;1.00;;;;;;;;;;4967368;28;99112;-75
2023/04/03 11:19:54;;;;;;;1.30;1.20;;;;;;;;;;4979155;28;98103;-75
2023/04/03 11:22:26;;;;;;;1.85;1.17;;;;;;;;;;4951283;28;98720;-75
2023/04/03 11:25:11;;;;;;;1.88;1.38;;;;;;;;;;4951467;28;100064;-74
2023/04/03 11:27:57;;;;;;;1.08;1.00;;;;;;;;;;4963124;28;98153;-74
2023/04/03 11:30:27;;;;;;;3.03;0.85;;;;;;;;;;4967678;28;98786;-75
2023/04/03 11:33:17;;;;;;;1.40;1.00;;;;;;;;;;4951806;28;99935;-75
2023/04/03 11:35:48;;;;;;;2.08;1.10;;;;;;;;;;4953079;28;98530;-74
2023/04/03 11:38:18;;;;;;;1.40;1.08;;;;;;;;;;4951531;28;99973;-74
2023/04/03 11:40:46;;;;;;;1.15;0.85;;;;;;;;;;4951288;28;98562;-75
2023/04/03 11:43:31;;;;;;;2.30;1.38;;;;;;;;;;4951853;28;99781;-74
2023/04/03 11:46:01;;;;;;;2.08;1.10;;;;;;;;;;4965053;28;100380;-75
2023/04/03 11:48:28;;;;;;;1.75;0.95;;;;;;;;;;4964591;28;99944;-75
2023/04/03 11:50:55;;;;;;;1.88;1.02;;;;;;;;;;4952165;28;98530;-75
2023/04/03 11:53:30;;;;;;;0.85;0.85;;;;;;;;;;4955378;28;98974;-75
2023/04/03 11:56:00;;;;;;;3.50;1.00;;;;;;;;;;4963411;28;100424;-75
2023/04/03 11:58:31;;;;;;;1.70;1.60;;;;;;;;;;4972576;28;99146;-75
2023/04/03 12:01:06;;;;;;;4.78;0.98;;;;;;;;;;4962505;28;98432;-75
2023/04/03 12:03:42;;;;;;;2.17;0.82;;;;;;;;;;4971017;28;98606;-74
2023/04/03 12:06:16;;;;;;;0.95;0.88;;;;;;;;;;4956453;28;99868;-74
2023/04/03 12:08:45;;;;;;;6.28;0.90;;;;;;;;;;4950998;28;98166;-76
2023/04/03 12:11:11;;;;;;;3.45;0.85;;;;;;;;;;4951251;28;99409;-75
2023/04/03 12:13:38;;;;;;;2.08;1.02;;;;;;;;;;4958409;28;100123;-75
2023/04/03 12:16:05;;;;;;;3.35;1.55;;;;;;;;;;4969626;28;98607;-74
2023/04/03 12:18:41;;;;;;;8.88;0.85;;;;;;;;;;4953478;28;99010;-74
2023/04/03 12:21:08;;;;;;;1.35;1.02;;;;;;;;;;4990139;28;98291;-74
2023/04/03 12:23:55;;;;;;;1.35;1.02;;;;;;;;;;4974445;28;99662;-74
2023/04/03 12:26:25;;;;;;;1.00;0.90;;;;;;;;;;4962627;28;99737;-74
2023/04/03 12:28:58;;;;;;;4.13;1.05;;;;;;;;;;4950245;28;98485;-74
2023/04/03 12:31:31;;;;;;;4.68;1.10;;;;;;;;;;4958227;28;98655;-74
2023/04/03 12:34:16;;;;;;;2.92;1.27;;;;;;;;;;4963319;28;99909;-74
2023/04/03 12:37:01;;;;;;;2.30;1.58;;;;;;;;;;4961664;28;99528;-74
2023/04/03 12:39:35;;;;;;;0.85;0.85;;;;;;;;;;4950585;28;99319;-74
2023/04/03 12:42:24;;;;;;;1.50;1.02;;;;;;;;;;4950550;28;98220;-74
2023/04/03 12:44:58;;;;;;;1.83;1.10;;;;;;;;;;4965682;28;98748;-74
2023/04/03 12:47:36;;;;;;;1.75;1.20;;;;;;;;;;4970023;28;102495;-73
2023/04/03 12:50:23;;;;;;;1.38;0.90;;;;;;;;;;4949788;28;98146;-75
2023/04/03 12:52:59;;;;;;;3.28;1.20;;;;;;;;;;4950259;28;98929;-74
2023/04/03 12:55:26;;;;;;;2.65;1.02;;;;;;;;;;4967432;28;100123;-74
2023/04/03 12:57:52;;;;;;;5.47;1.40;;;;;;;;;;4956576;28;98468;-75
2023/04/03 13:00:35;;;;;;;1.30;1.00;;;;;;;;;;4952897;28;99256;-74
2023/04/03 13:03:02;;;;;;;1.42;1.05;;;;;;;;;;4963908;28;98228;-74
2023/04/03 13:05:30;;;;;;;3.85;1.10;;;;;;;;;;4958709;28;98914;-74
2023/04/03 13:08:01;;;;;;;1.63;1.35;;;;;;;;;;4952987;28;99131;-74
2023/04/03 13:10:28;;;;;;;2.60;1.10;;;;;;;;;;4973730;28;99732;-74
2023/04/03 13:12:56;;;;;;;3.22;1.27;;;;;;;;;;4968451;28;99824;-75
2023/04/03 13:15:23;;;;;;;1.65;1.10;;;;;;;;;;4966176;28;99797;-73
2023/04/03 13:17:51;;;;;;;1.60;1.25;;;;;;;;;;4951553;28;98262;-74
2023/04/03 13:20:17;;;;;;;3.03;1.13;;;;;;;;;;4964305;28;99388;-74
2023/04/03 13:22:56;;;;;;;9.05;1.08;;;;;;;;;;4954547;28;99115;-73
2023/04/03 13:25:23;;;;;;;1.15;1.13;;;;;;;;;;4949905;28;98706;-73
2023/04/03 13:27:50;;;;;;;3.28;1.58;;;;;;;;;;4949604;28;99047;-75
2023/04/03 13:30:49;;;;;;;1.17;1.00;;;;;;;;;;4951203;28;98292;-74
2023/04/03 13:33:20;;;;;;;1.17;1.08;;;;;;;;;;4952912;28;100027;-75
2023/04/03 13:35:47;;;;;;;2.25;1.13;;;;;;;;;;4949339;28;100033;-75
2023/04/03 13:38:20;;;;;;;2.13;1.10;;;;;;;;;;4951317;28;98974;-75
2023/04/03 13:40:47;;;;;;;1.10;1.00;;;;;;;;;;4967578;28;99483;-75
2023/04/03 13:43:18;;;;;;;2.05;0.95;;;;;;;;;;4969201;28;100040;-75
2023/04/03 13:46:04;;;;;;;2.47;1.50;;;;;;;;;;4965059;28;98239;-75
2023/04/03 13:48:35;;;;;;;4.28;1.33;;;;;;;;;;4949640;28;98973;-75
2023/04/03 13:51:04;;;;;;;1.45;1.25;;;;;;;;;;4956532;28;98357;-75
2023/04/03 13:53:32;;;;;;;2.53;1.23;;;;;;;;;;4968505;28;98721;-75
2023/04/03 13:55:58;;;;;;;3.13;1.20;;;;;;;;;;4967465;28;99618;-75
2023/04/03 13:58:26;;;;;;;1.10;0.98;;;;;;;;;;4960622;28;98227;-74
2023/04/03 14:01:01;;;;;;;1.02;0.93;;;;;;;;;;4949060;28;98572;-74
2023/04/03 14:03:33;;;;;;;3.15;1.30;;;;;;;;;;4949169;28;99980;-75
2023/04/03 14:06:00;;;;;;;1.20;1.00;;;;;;;;;;4951532;28;98269;-75
2023/04/03 14:08:27;;;;;;;1.50;1.40;;;;;;;;;;4954331;28;99267;-74
2023/04/03 14:11:28;;;;;;;1.05;0.88;;;;;;;;;;4948758;28;98284;-75
2023/04/03 14:13:57;;;;;;;1.00;0.90;;;;;;;;;;4956184;28;99323;-75
2023/04/03 14:16:27;;;;;;;1.75;1.27;;;;;;;;;;4968101;28;98860;-75
2023/04/03 14:18:53;;;;;;;4.00;1.20;;;;;;;;;;4968630;28;98458;-74
2023/04/03 14:21:21;;;;;;;1.27;0.85;;;;;;;;;;4965763;28;98837;-75
2023/04/03 14:23:47;;;;;;;1.25;1.08;;;;;;;;;;4951520;28;99911;-75
2023/04/03 14:26:18;;;;;;;1.30;1.23;;;;;;;;;;4960264;28;98169;-76
2023/04/03 14:28:45;;;;;;;2.75;1.10;;;;;;;;;;4963041;28;98553;-73
2023/04/03 14:31:12;;;;;;;3.40;1.42;;;;;;;;;;4963475;28;98651;-73
2023/04/03 14:33:40;;;;;;;1.33;0.90;;;;;;;;;;4957908;28;98767;-74
2023/04/03 14:36:16;;;;;;;2.50;1.17;;;;;;;;;;4957893;28;100067;-76
2023/04/03 14:38:44;;;;;;;2.42;1.27;;;;;;;;;;4963153;28;98365;-76
2023/04/03 14:41:11;;;;;;;1.98;1.17;;;;;;;;;;4953865;28;101329;-75
2023/04/03 14:43:42;;;;;;;2.57;1.33;;;;;;;;;;4952179;28;99342;-74
2023/04/03 14:46:27;;;;;;;2.67;1.30;;;;;;;;;;4958631;28;99324;-74
2023/04/03 14:49:17;;;;;;;30.52;21.58;;;;;;;;;;4970684;28;98575;-74
2023/04/03 14:51:44;;;;;;;16.38;11.68;;;;;;;;;;4951642;28;100320;-74
2023/04/03 14:54:13;;;;;;;3.42;3.17;;;;;;;;;;4949705;28;99711;-75
2023/04/03 14:56:39;;;;;;;1.80;1.70;;;;;;;;;;4948320;28;99896;-75